جازان, السعودية

12:10 PM AST on êèنêè 06, 2015 (GMT +0300)
Jazan | | Change Station
CLOSE
Current Station
Airport
Location: Gizan,
Elevation: 20 ft
Nearby Weather Stations

Elev 20 ft 16.90 °N, 42.59 °E | Updated 10 minutes ago

Clear
صافية
99 °F
Feels Like 114 °F
N
8
ريح متغير ريح from WSW

هذا اليوم
High -- | Low -- °F
--% Chance of Precip.
Yesterday
High -- | Low -- °F
Precip. -- في
5:41 AM 6:47 PM
الأحدب الأخير, 77% visible
الضغط 29.71 في
وضوح الرؤية -9999.0 أميال
سحابات
مؤشر الحرارة 114 °F
نقطة الندى 77 °F
الرطوبة 50%
Rainfall 0.00 في
عمق الثلج Not available.
الأشعة فوق البنفسجية Not available.
Pollen Not available.
جودة الهواء Not available.
Flu Activity Not available.
METAR OEGN 060900Z 25007KT CAVOK 37/25 Q1006 NOSIG

More Conditions Fewer Conditions

الضغط 29.71 في
وضوح الرؤية -9999.0 أميال
سحابات
مؤشر الحرارة 114 °F
نقطة الندى 77 °F
الرطوبة 50%
Rainfall 0.00 في
عمق الثلج Not available.
الأشعة فوق البنفسجية Not available.
Pollen Not available.
جودة الهواء Not available.
Flu Activity Not available.
METAR OEGN 060900Z 25007KT CAVOK 37/25 Q1006 NOSIG

More Conditions Fewer Conditions

10-Day Weather Forecast

×

Almanac

علم الفلك

Jul. 06, 2015 Rise Set
Actual Time
Civil Twilight
Nautical Twilight
Astronomical Twilight
قمر
Length Of Visible Light
طول الیوم
Tomorrow will be .
, % of the Moon is Illuminated

Today's Extremes

Country Highs Country Lows

Community

WunderPhotos

Upload Photos

1,835,520 photos uploaded!

WunderBlogs® & News

Nearby

جودة الهواء

  جودة الهواء AQ Index Pollutant
Not available.

عمق الثلج

Station Depth Elevation

Earthquake Activity

City Distance Mag. Time & Date
Minimum magnitude displayed is 2.5.

Coastal Water Temperatures

مكان درجات الحرارة

Stations

Nearby Weather Stations

Station Location الحرارة رياح باردة نقطة الندى الرطوبة ريح Precip. Elev تحديث Type